createdAt,value
2022-10-05T00:04:31.885Z,1011.126
2022-10-05T00:09:44.722Z,1011.159
2022-10-05T00:14:57.342Z,1011
2022-10-05T00:20:09.775Z,1010.945
2022-10-05T00:25:22.113Z,1011.083
2022-10-05T00:30:34.455Z,1011.13
2022-10-05T00:35:46.825Z,1011.123
2022-10-05T00:40:59.247Z,1011.141
2022-10-05T00:46:11.429Z,1010.984
2022-10-05T00:51:23.893Z,1010.822
2022-10-05T00:56:36.239Z,1010.879
2022-10-05T01:01:48.643Z,1010.73
2022-10-05T01:07:00.968Z,1010.723
2022-10-05T01:12:13.415Z,1010.705
2022-10-05T01:17:25.509Z,1010.766
2022-10-05T01:22:38.042Z,1010.593
2022-10-05T01:27:50.489Z,1010.476
2022-10-05T01:33:03.167Z,1010.599
2022-10-05T01:38:15.316Z,1010.549
2022-10-05T01:48:40.024Z,1010.526
2022-10-05T01:53:52.833Z,1010.528
2022-10-05T01:59:05.290Z,1010.615
2022-10-05T02:04:37.216Z,1010.666
2022-10-05T02:09:30.056Z,1010.726
2022-10-05T02:14:42.205Z,1010.775
2022-10-05T02:19:54.465Z,1010.692
2022-10-05T02:25:07.215Z,1010.653
2022-10-05T02:30:19.499Z,1010.704
2022-10-05T02:35:31.730Z,1010.703
2022-10-05T02:40:44.113Z,1010.708
2022-10-05T02:45:56.528Z,1010.703
2022-10-05T02:51:08.668Z,1010.667
2022-10-05T02:56:21.391Z,1010.596
2022-10-05T03:01:33.887Z,1010.52
2022-10-05T03:06:46.613Z,1010.531
2022-10-05T03:11:59.345Z,1010.512
2022-10-05T03:17:11.770Z,1010.513
2022-10-05T03:22:24.163Z,1010.4
2022-10-05T03:27:36.399Z,1010.415
2022-10-05T03:32:48.923Z,1010.286
2022-10-05T03:38:01.205Z,1010.269
2022-10-05T03:43:13.536Z,1010.167
2022-10-05T03:48:25.760Z,1010.183
2022-10-05T03:53:38.123Z,1010.098
2022-10-05T03:58:50.505Z,1010.059
2022-10-05T04:04:02.614Z,1009.943
2022-10-05T04:09:15.265Z,1009.968
2022-10-05T04:14:27.572Z,1010.048
2022-10-05T04:19:39.883Z,1009.957
2022-10-05T04:24:52.033Z,1010.007
2022-10-05T04:30:04.362Z,1010.033
2022-10-05T04:35:16.693Z,1010.029
2022-10-05T04:40:29.087Z,1009.972
2022-10-05T04:45:41.293Z,1010.044
2022-10-05T04:50:53.612Z,1010.067
2022-10-05T04:56:05.883Z,1010.07
2022-10-05T05:01:18.298Z,1010.031
2022-10-05T05:06:30.517Z,1009.958
2022-10-05T05:11:42.808Z,1009.893
2022-10-05T05:16:55.860Z,1010.015
2022-10-05T05:22:08.527Z,1010.101
2022-10-05T05:27:20.604Z,1010.066
2022-10-05T05:32:33.160Z,1009.849
2022-10-05T05:37:45.677Z,1009.825
2022-10-05T05:42:57.881Z,1009.662
2022-10-05T05:48:10.286Z,1009.708
2022-10-05T05:53:22.847Z,1009.861
2022-10-05T05:58:35.155Z,1009.952
2022-10-05T06:03:47.600Z,1009.822
2022-10-05T06:09:00.037Z,1009.825
2022-10-05T06:14:12.328Z,1009.874
2022-10-05T06:19:24.870Z,1009.879
2022-10-05T06:24:37.227Z,1009.907
2022-10-05T06:29:49.520Z,1010.023
2022-10-05T06:35:02.024Z,1010.027
2022-10-05T06:40:14.888Z,1010.086
2022-10-05T06:45:27.010Z,1009.99
2022-10-05T06:50:39.411Z,1010.021
2022-10-05T06:55:51.668Z,1010.075
2022-10-05T07:01:03.913Z,1010.032
2022-10-05T07:06:16.080Z,1010.078
2022-10-05T07:11:28.731Z,1010.063
2022-10-05T07:16:41.003Z,1010.121
2022-10-05T07:21:53.350Z,1010.138
2022-10-05T07:27:05.634Z,1010.119
2022-10-05T07:32:18.131Z,1010.079
2022-10-05T07:37:30.566Z,1010.11
2022-10-05T07:42:49.078Z,1010.139
2022-10-05T07:47:55.585Z,1010.195
2022-10-05T07:53:07.920Z,1010.237
2022-10-05T07:58:20.248Z,1010.227
2022-10-05T08:03:32.666Z,1010.333
2022-10-05T08:08:45.116Z,1010.242
2022-10-05T08:13:57.331Z,1009.999
2022-10-05T08:19:09.727Z,1009.902
2022-10-05T08:24:22.092Z,1009.985
2022-10-05T08:29:34.501Z,1009.914
2022-10-05T08:34:46.896Z,1009.773
2022-10-05T08:39:59.221Z,1009.777
2022-10-05T08:45:11.702Z,1009.691
2022-10-05T08:50:23.989Z,1009.723
2022-10-05T08:55:36.302Z,1009.743
2022-10-05T09:00:49.071Z,1009.608
2022-10-05T09:06:01.260Z,1009.528
2022-10-05T09:11:13.722Z,1009.502
2022-10-05T09:16:26.082Z,1009.561
2022-10-05T09:21:38.780Z,1009.611
2022-10-05T09:26:50.986Z,1009.54
2022-10-05T09:32:03.284Z,1009.546
2022-10-05T09:37:15.824Z,1009.561
2022-10-05T09:42:28.348Z,1009.503
2022-10-05T09:47:40.700Z,1009.543
2022-10-05T09:52:53.009Z,1009.429
2022-10-05T09:58:05.364Z,1009.315
2022-10-05T10:03:17.757Z,1009.278
2022-10-05T10:08:30.065Z,1009.244
2022-10-05T10:13:42.485Z,1009.271
2022-10-05T10:18:55.167Z,1009.177
2022-10-05T10:24:07.637Z,1009.278
2022-10-05T10:29:19.790Z,1009.396
2022-10-05T10:34:32.229Z,1009.427
2022-10-05T10:39:44.614Z,1009.355
2022-10-05T10:44:57.045Z,1009.4
2022-10-05T10:50:09.602Z,1009.397
2022-10-05T10:55:22.394Z,1009.454
2022-10-05T11:00:34.708Z,1009.346
2022-10-05T11:05:48.654Z,1009.25
2022-10-05T11:10:59.521Z,1009.249
2022-10-05T11:16:14.549Z,1009.23
2022-10-05T11:21:24.668Z,1009.145
2022-10-05T11:26:36.860Z,1009.046
2022-10-05T11:31:49.350Z,1009.04
2022-10-05T11:37:01.611Z,1008.992
2022-10-05T11:42:14.052Z,1008.937
2022-10-05T11:47:26.119Z,1008.875
2022-10-05T11:52:38.328Z,1008.777
2022-10-05T11:57:50.801Z,1008.744
2022-10-05T12:03:03.319Z,1008.77
2022-10-05T12:08:15.771Z,1008.689
2022-10-05T12:13:28.177Z,1008.671
2022-10-05T12:18:40.615Z,1008.589
2022-10-05T12:23:53.418Z,1008.694
2022-10-05T12:29:05.745Z,1008.546
2022-10-05T12:34:18.321Z,1008.534
2022-10-05T12:39:30.913Z,1008.485
2022-10-05T12:44:43.314Z,1008.467
2022-10-05T12:49:55.633Z,1008.482
2022-10-05T12:55:08.097Z,1008.496
2022-10-05T13:00:23.095Z,1008.401
2022-10-05T13:05:33.095Z,1008.387
2022-10-05T13:10:45.700Z,1008.529
2022-10-05T13:15:58.110Z,1008.536
2022-10-05T13:21:10.284Z,1008.45
2022-10-05T13:26:22.851Z,1008.317
2022-10-05T13:31:35.262Z,1008.499
2022-10-05T13:36:47.373Z,1008.342
2022-10-05T13:41:59.851Z,1008.366
2022-10-05T13:47:12.437Z,1008.241
2022-10-05T13:52:24.682Z,1008.152
2022-10-05T13:57:37.045Z,1008.281
2022-10-05T14:02:49.390Z,1008.361
2022-10-05T14:08:01.960Z,1008.286
2022-10-05T14:13:14.528Z,1008.339
2022-10-05T14:18:26.784Z,1008.175
2022-10-05T14:23:39.089Z,1008.154
2022-10-05T14:28:51.261Z,1007.866
2022-10-05T14:34:03.650Z,1007.892
2022-10-05T14:39:16.054Z,1007.754
2022-10-05T14:44:28.700Z,1007.723
2022-10-05T14:49:41.037Z,1007.781
2022-10-05T14:54:53.175Z,1007.74
2022-10-05T15:00:05.431Z,1007.749
2022-10-05T15:05:17.913Z,1007.563
2022-10-05T15:10:30.450Z,1007.506
2022-10-05T15:15:42.585Z,1007.479
2022-10-05T15:20:55.102Z,1007.515
2022-10-05T15:26:07.727Z,1007.498
2022-10-05T15:31:20.231Z,1007.569
2022-10-05T15:36:32.435Z,1007.535
2022-10-05T15:41:44.631Z,1007.582
2022-10-05T15:46:58.532Z,1007.451
2022-10-05T15:52:10.789Z,1007.53
2022-10-05T15:57:22.978Z,1007.612
2022-10-05T16:02:35.066Z,1007.446
2022-10-05T16:07:47.528Z,1007.519
2022-10-05T16:12:59.836Z,1007.548
2022-10-05T16:18:12.068Z,1007.502
2022-10-05T16:23:24.288Z,1007.424
2022-10-05T16:28:36.474Z,1007.274
2022-10-05T16:33:48.361Z,1007.307
2022-10-05T16:39:00.309Z,1007.115
2022-10-05T16:44:12.552Z,1007.154
2022-10-05T16:49:24.800Z,1007.073
2022-10-05T16:54:36.894Z,1007.112
2022-10-05T16:59:49.015Z,1007.143
2022-10-05T17:05:01.257Z,1007.155
2022-10-05T17:10:13.691Z,1007.235
2022-10-05T17:15:26.043Z,1007.186
2022-10-05T17:20:42.368Z,1007.233
2022-10-05T17:25:51.056Z,1007.264
2022-10-05T17:31:03.381Z,1007.238
2022-10-05T17:36:15.821Z,1007.293
2022-10-05T17:41:28.238Z,1007.267
2022-10-05T17:46:40.398Z,1007.301
2022-10-05T17:51:52.803Z,1007.33
2022-10-05T17:57:05.361Z,1007.212
2022-10-05T18:02:18.051Z,1007.161
2022-10-05T18:07:30.284Z,1007.181
2022-10-05T18:12:42.551Z,1007.237
2022-10-05T18:17:55.903Z,1007.148
2022-10-05T18:23:08.166Z,1007.171
2022-10-05T18:28:20.743Z,1007.205
2022-10-05T18:33:32.889Z,1007.181
2022-10-05T18:38:45.232Z,1007.176
2022-10-05T18:43:57.311Z,1007.108
2022-10-05T18:49:09.549Z,1007.102
2022-10-05T18:54:21.901Z,1007.16
2022-10-05T18:59:34.090Z,1007.154
2022-10-05T19:04:46.656Z,1007.109
2022-10-05T19:09:59.078Z,1007.129
2022-10-05T19:15:11.119Z,1007.087
2022-10-05T19:20:23.681Z,1007.278
2022-10-05T19:25:35.801Z,1007.341
2022-10-05T19:30:47.958Z,1007.421
2022-10-05T19:36:00.141Z,1007.488
2022-10-05T19:41:12.412Z,1007.588
2022-10-05T19:46:24.629Z,1007.599
2022-10-05T19:51:36.803Z,1007.681
2022-10-05T19:56:49.253Z,1007.723
2022-10-05T20:02:01.799Z,1007.784
2022-10-05T20:07:13.996Z,1007.822
2022-10-05T20:12:26.754Z,1007.858
2022-10-05T20:17:39.141Z,1007.932
2022-10-05T20:22:51.421Z,1008.047
2022-10-05T20:28:03.779Z,1008.192
2022-10-05T20:33:16.257Z,1008.218
2022-10-05T20:38:28.693Z,1008.271
2022-10-05T20:43:40.808Z,1008.267
2022-10-05T20:48:53.086Z,1008.311
2022-10-05T20:54:05.273Z,1008.391
2022-10-05T20:59:17.654Z,1008.434
2022-10-05T21:04:32.780Z,1008.458
2022-10-05T21:09:42.375Z,1008.466
2022-10-05T21:14:54.831Z,1008.547
2022-10-05T21:20:07.253Z,1008.577
2022-10-05T21:25:19.641Z,1008.598
2022-10-05T21:30:31.971Z,1008.664
2022-10-05T21:35:44.298Z,1008.665
2022-10-05T21:40:56.736Z,1008.608
2022-10-05T21:46:09.088Z,1008.662
2022-10-05T21:51:21.364Z,1008.658
2022-10-05T21:56:33.550Z,1008.764
2022-10-05T22:01:45.987Z,1008.745
2022-10-05T22:06:58.188Z,1008.862
2022-10-05T22:12:10.555Z,1008.885
2022-10-05T22:17:22.957Z,1008.842
2022-10-05T22:22:35.529Z,1008.811
2022-10-05T22:27:47.850Z,1008.873
2022-10-05T22:33:00.023Z,1008.816
2022-10-05T22:38:12.180Z,1008.885
2022-10-05T22:43:24.608Z,1008.89
2022-10-05T22:48:37.065Z,1008.956
2022-10-05T22:53:49.467Z,1008.996
2022-10-05T22:59:01.892Z,1009.107
2022-10-05T23:04:14.240Z,1008.974
2022-10-05T23:09:26.508Z,1009.058
2022-10-05T23:14:39.067Z,1009.284
2022-10-05T23:19:51.422Z,1009.182
2022-10-05T23:25:04.010Z,1009.27
2022-10-05T23:30:16.245Z,1009.279
2022-10-05T23:35:28.384Z,1009.375
2022-10-05T23:40:40.955Z,1009.449
2022-10-05T23:45:53.431Z,1009.537
2022-10-05T23:51:05.493Z,1009.555
2022-10-05T23:56:17.793Z,1009.584
